Riverdale, Utah
Current Conditions -  °F | °C
As of 1:58 AM on Friday 31 Oct 2014 (Local Time) from KHIF Reporting Station
Clear Clear  
Wind Chill: 58°   Ceiling: Unl
Heat Index: 58°   Visibility: 10mi
Dew Point: 25°   Wind: 13mph
Humidity: 28%   Direction: 130°SE
Pressure: 30.07"   Gusts: NA
Location:  41.162°N, 111.972°W
Report Text: KHIF 310758Z AUTO 13011KT 10SM CLR 15/M04 A3007 RMK AO2 SLP143 T01451038
Loading
Personal Weather Stations






























Interactive Weather Map
Tropical Storm Tracking
New forecast layout! Learn more

10-Day Weather Forecast

Advertisements
Track Severe Weather on mobile